Skip Navigation Links
NOAA logo - Click to go to the NOAA homepage
NOAA's National Weather Service
Alaska Aviation Weather Unit
  NWS logo - Click to go to the NWS homepage
Left Navbar Graphic     09 AKDT = 17 GMT

   
NOAA is celebrating 200 years of science, service, and stewardship. Visit the NOAA 200th celebration Web site to learn more.
USA.gov is the U.S. Government's official Web portal to all Federal, state and local government Web resources and services.
Facebook
NWS on Facebook

Important Change Regarding the AAWU Web Presence

 

Over the last several months, the AAWU has been working to navigate its webpages to a nationally supported server. Security, as well as other needs, have necessitated the change.  In the process, we have made an effort to enhance the functionality of our website, as well as some of our products. As of June 20, 2017, aawu.arh.noaa.gov will be discontinued. The new AAWU web address is weather.gov/aawu. It is now live and will run in-parallel with the old site until it is discontinued. Please send any feedback or questions regarding the new webpages to nws.ar.aawu.webauthors@noaa.gov.  Thank you for your patience during this time of transition.
AAWU Home :: Display TAF Add Bookmark
TAF PAED 231615Z 2316/2417 17009KT 9999 BKN050 BKN070 OVC200
      600505 QNH2996INS
      TEMPO 2316/2322 16010G15KT SCT040 SCT070 BKN200
      BECMG 2402/2403 18009KT 9999 SCT030 BKN050 BKN120 620509
      QNH2998INS
      BECMG 2408/2409 VRB06KT 9999 VCSH SCT040 OVC060 620609
      QNH2999INS TX15/2323Z TN06/2414Z=
PAED 231138Z AUTO 15006KT 10SM OVC055 07/03 A2998=

METAR PAED 231158Z 15005KT 10SM BKN042 OVC055 07/03 A2998=

PAED 231238Z 15004KT 10SM SCT043 OVC060 07/03 A2998=

METAR PAED 231258Z 00000KT 10SM BKN060 07/04 A2998=

PAED 231348Z 00000KT 10SM FEW034 BKN048 BKN150 07/04 A2999=

METAR PAED 231358Z 00000KT 10SM FEW035 BKN050 OVC150 07/04 A2999=

PAED 231428Z 00000KT 10SM BKN055 OVC120 07/03 A2999=

METAR PAED 231458Z AUTO 00000KT 10SM FEW038 OVC055 07/03 A2999 RMK AO2
     SLP152 T00700032 53001=

PAED 231518Z AUTO 00000KT 10SM SCT039 OVC050 08/03 A2999=

METAR PAED 231558Z AUTO 18014KT 10SM OVC049 08/02 A2998 RMK AO2 SLP148
     T00820016=

PAED 231628Z AUTO 17013KT 10SM BKN045 OVC055 08/02 A2998=


NOAA's National Weather Service
Alaska Aviation Weather Unit
6930 Sand Lake Road
Anchorage, AK 99502-1845
Disclaimer
Credits
Glossary
Privacy Policy
About Us
Career Opportunities
Contact AAWU Internet Services Site last modified: April, 17th 2012